createdAt,value
2018-11-02T06:49:13.594Z,12.87
2018-11-02T06:51:42.712Z,12.87
2018-11-02T06:54:11.859Z,12.20
2018-11-02T06:56:40.988Z,11.30
2018-11-02T06:59:10.211Z,12.83
2018-11-02T07:01:39.257Z,12.70
2018-11-02T07:04:08.296Z,13.37
2018-11-02T07:06:37.300Z,12.20
2018-11-02T07:09:09.528Z,11.37
2018-11-02T07:11:38.741Z,11.57
2018-11-02T07:14:10.692Z,12.60
2018-11-02T07:16:39.807Z,13.37
2018-11-02T07:19:09.314Z,14.10
2018-11-02T07:21:38.420Z,12.47
2018-11-02T07:24:08.030Z,13.30
2018-11-02T07:26:37.078Z,12.13
2018-11-02T07:29:06.826Z,12.93
2018-11-02T07:31:42.199Z,12.40
2018-11-02T07:34:11.279Z,12.67
2018-11-02T07:36:40.330Z,12.80
2018-11-02T07:39:27.322Z,11.17
2018-11-02T07:41:56.689Z,12.03
2018-11-02T07:44:25.887Z,11.97
2018-11-02T07:46:56.386Z,10.30
2018-11-02T07:49:25.795Z,11.07
2018-11-02T07:51:54.788Z,10.40
2018-11-02T07:54:24.123Z,10.30
2018-11-02T07:56:53.168Z,10.90
2018-11-02T07:59:22.565Z,10.20
2018-11-02T08:01:51.803Z,10.33
2018-11-02T08:04:20.561Z,11.47
2018-11-02T08:06:49.629Z,12.50
2018-11-02T08:09:18.553Z,10.80
2018-11-02T08:11:47.371Z,11.27
2018-11-02T08:14:16.320Z,10.87
2018-11-02T08:16:45.289Z,12.00
2018-11-02T08:19:14.227Z,11.67
2018-11-02T08:21:43.117Z,12.43
2018-11-02T08:24:12.069Z,11.00
2018-11-02T08:26:41.388Z,12.23
2018-11-02T08:29:10.630Z,12.77
2018-11-02T08:31:39.820Z,11.23
2018-11-02T08:34:08.858Z,11.63
2018-11-02T08:36:37.823Z,10.33
2018-11-02T08:39:09.485Z,10.67
2018-11-02T08:41:38.429Z,10.83
2018-11-02T08:44:07.842Z,11.03
2018-11-02T08:46:36.968Z,10.33
2018-11-02T08:49:05.902Z,10.80
2018-11-02T08:51:34.884Z,10.47
2018-11-02T08:54:03.846Z,13.07
2018-11-02T08:56:32.807Z,14.70
2018-11-02T08:59:01.836Z,14.03
2018-11-02T09:01:31.067Z,11.67
2018-11-02T09:04:00.019Z,11.60
2018-11-02T09:06:29.008Z,10.73
2018-11-02T09:08:58.092Z,10.50
2018-11-02T09:11:27.211Z,10.17
2018-11-02T09:13:56.433Z,10.10
2018-11-02T09:16:25.683Z,8.60
2018-11-02T09:18:54.825Z,9.33
2018-11-02T09:21:23.920Z,8.53
2018-11-02T09:23:53.157Z,8.10
2018-11-02T09:26:22.595Z,8.50
2018-11-02T09:28:52.089Z,9.13
2018-11-02T09:31:25.444Z,7.87
2018-11-02T09:33:55.674Z,8.60
2018-11-02T09:36:24.872Z,9.67
2018-11-02T09:38:54.146Z,9.80
2018-11-02T09:41:23.483Z,11.40
2018-11-02T09:43:52.650Z,11.03
2018-11-02T09:46:23.080Z,10.57
2018-11-02T09:48:52.228Z,10.53
2018-11-02T09:51:21.471Z,10.40
2018-11-02T09:53:50.613Z,9.70
2018-11-02T09:56:19.716Z,10.33
2018-11-02T09:58:48.992Z,11.20
2018-11-02T10:01:18.204Z,11.20
2018-11-02T10:03:47.356Z,10.97
2018-11-02T10:06:16.625Z,10.87
2018-11-02T10:08:45.789Z,10.37
2018-11-02T10:11:14.903Z,10.37
2018-11-02T10:13:44.093Z,9.70
2018-11-02T10:16:13.477Z,8.80
2018-11-02T10:18:42.734Z,8.40
2018-11-02T10:21:11.897Z,9.30
2018-11-02T10:23:41.048Z,9.43
2018-11-02T10:26:10.266Z,9.40
2018-11-02T10:28:39.609Z,8.77
2018-11-02T10:31:08.907Z,7.90
2018-11-02T10:33:38.070Z,8.23
2018-11-02T10:36:07.367Z,8.10
2018-11-02T10:38:36.658Z,7.87
2018-11-02T10:41:06.798Z,9.40
2018-11-02T10:43:36.429Z,9.23
2018-11-02T10:46:05.784Z,8.30
2018-11-02T10:48:34.976Z,7.83
2018-11-02T10:51:05.082Z,8.93
2018-11-02T10:53:34.219Z,8.27
2018-11-02T10:56:03.716Z,7.83
2018-11-02T10:58:33.070Z,8.27
2018-11-02T11:01:07.826Z,7.67
2018-11-02T11:03:36.900Z,7.17
2018-11-02T11:06:06.240Z,6.67
2018-11-02T11:08:35.395Z,7.70
2018-11-02T11:11:04.670Z,7.83
2018-11-02T11:13:33.918Z,8.23
2018-11-02T11:16:02.980Z,6.43
2018-11-02T11:18:32.178Z,6.20
2018-11-02T11:21:01.537Z,6.47
2018-11-02T11:23:30.643Z,6.20
2018-11-02T11:25:59.716Z,6.70
2018-11-02T11:28:28.850Z,6.67
2018-11-02T11:30:58.380Z,5.90
2018-11-02T11:33:27.521Z,5.97
2018-11-02T11:35:56.616Z,6.00
2018-11-02T11:38:25.783Z,6.53
2018-11-02T11:40:54.993Z,6.67
2018-11-02T11:43:24.112Z,6.53
2018-11-02T11:45:53.237Z,5.87
2018-11-02T11:48:22.603Z,6.73
2018-11-02T11:50:51.782Z,6.40
2018-11-02T11:53:20.925Z,5.20
2018-11-02T11:55:50.800Z,5.20
2018-11-02T11:58:19.898Z,6.93
2018-11-02T12:00:49.024Z,8.97
2018-11-02T12:03:18.156Z,7.30
2018-11-02T12:05:47.367Z,7.13
2018-11-02T12:08:16.483Z,6.87
2018-11-02T12:10:45.687Z,6.07
2018-11-02T12:13:14.929Z,4.73
2018-11-02T12:15:44.132Z,5.43
2018-11-02T12:18:13.410Z,4.73
2018-11-02T12:20:42.672Z,4.67
2018-11-02T12:23:11.846Z,4.63
2018-11-02T12:25:40.945Z,4.37
2018-11-02T12:28:10.110Z,4.00
2018-11-02T12:30:39.211Z,4.03
2018-11-02T12:33:08.397Z,4.87
2018-11-02T12:35:37.431Z,4.27
2018-11-02T12:38:06.610Z,4.17
2018-11-02T12:40:35.677Z,4.67
2018-11-02T12:43:05.523Z,4.40
2018-11-02T12:45:34.642Z,4.83
2018-11-02T12:48:03.888Z,4.20
2018-11-02T12:50:32.966Z,4.73
2018-11-02T12:53:02.087Z,5.07
2018-11-02T12:55:31.177Z,5.10
2018-11-02T12:58:00.260Z,5.50
2018-11-02T13:00:29.437Z,4.80
2018-11-02T13:02:58.608Z,6.00
2018-11-02T13:05:27.770Z,5.67
2018-11-02T13:07:57.031Z,4.07
2018-11-02T13:10:26.220Z,4.57
2018-11-02T13:12:55.409Z,4.77
2018-11-02T13:15:24.858Z,4.83
2018-11-02T13:17:54.083Z,4.83
2018-11-02T13:20:23.228Z,4.83
2018-11-02T13:22:52.412Z,5.03
2018-11-02T13:25:21.969Z,4.57
2018-11-02T13:27:51.700Z,4.83
2018-11-02T13:30:21.003Z,4.47
2018-11-02T13:32:50.079Z,4.60
2018-11-02T13:35:19.767Z,4.90
2018-11-02T13:37:49.474Z,4.90
2018-11-02T13:40:18.916Z,4.83
2018-11-02T13:42:48.141Z,4.77
2018-11-02T13:45:17.989Z,4.30
2018-11-02T13:47:47.147Z,4.27
2018-11-02T13:50:16.277Z,4.80
2018-11-02T13:52:45.474Z,4.70
2018-11-02T13:55:14.626Z,4.90
2018-11-02T13:57:43.739Z,4.27
2018-11-02T14:00:14.601Z,4.97
2018-11-02T14:02:43.792Z,4.73
2018-11-02T14:05:14.133Z,4.77
2018-11-02T14:07:43.263Z,4.50
2018-11-02T14:10:13.023Z,5.23
2018-11-02T14:12:43.063Z,5.00
2018-11-02T14:15:13.721Z,5.30
2018-11-02T14:17:43.166Z,4.53
2018-11-02T14:20:13.172Z,4.53
2018-11-02T14:22:42.314Z,5.53
2018-11-02T14:25:12.847Z,5.23
2018-11-02T14:27:41.979Z,5.10
2018-11-02T14:30:15.995Z,5.13
2018-11-02T14:32:45.984Z,5.90
2018-11-02T14:35:15.081Z,5.77
2018-11-02T14:37:44.245Z,6.17
2018-11-02T14:40:13.447Z,6.10
2018-11-02T14:42:42.768Z,6.63
2018-11-02T14:45:14.633Z,6.00
2018-11-02T14:47:44.671Z,5.60
2018-11-02T14:50:13.829Z,5.93
2018-11-02T14:52:42.893Z,6.33
2018-11-02T14:55:12.091Z,5.70
2018-11-02T14:57:41.171Z,6.53
2018-11-02T15:00:11.543Z,6.67
2018-11-02T15:02:41.241Z,6.53
2018-11-02T15:05:11.911Z,6.20
2018-11-02T15:07:42.862Z,6.40
2018-11-02T15:10:12.047Z,7.50
2018-11-02T15:12:41.173Z,8.10
2018-11-02T15:15:10.389Z,8.23
2018-11-02T15:17:39.841Z,8.50
2018-11-02T15:20:11.925Z,7.80
2018-11-02T15:22:41.072Z,7.17
2018-11-02T15:25:10.494Z,8.33
2018-11-02T15:27:39.959Z,7.07
2018-11-02T15:30:11.598Z,7.83
2018-11-02T15:32:41.279Z,7.33
2018-11-02T15:35:11.282Z,7.53
2018-11-02T15:37:40.883Z,6.47
2018-11-02T15:40:11.235Z,7.33
2018-11-02T15:42:40.611Z,6.37
2018-11-02T15:45:12.894Z,6.50
2018-11-02T15:47:42.538Z,6.87
2018-11-02T15:50:11.792Z,6.70
2018-11-02T15:52:41.045Z,6.47
2018-11-02T15:55:11.236Z,6.83
2018-11-02T15:57:40.336Z,6.03
2018-11-02T16:00:14.942Z,6.53
2018-11-02T16:02:45.296Z,6.37
2018-11-02T16:05:14.424Z,6.10
2018-11-02T16:07:43.504Z,7.07
2018-11-02T16:10:12.847Z,8.03
2018-11-02T16:12:42.768Z,6.90
2018-11-02T16:15:12.158Z,11.50
2018-11-02T16:17:41.319Z,12.87
2018-11-02T16:20:13.500Z,14.77
2018-11-02T16:22:43.038Z,12.90
2018-11-02T16:25:12.927Z,12.03
2018-11-02T16:27:42.759Z,10.97
2018-11-02T16:30:12.303Z,10.37
2018-11-02T16:32:41.235Z,9.00
2018-11-02T16:35:11.073Z,8.43
2018-11-02T16:37:40.195Z,6.83
2018-11-02T16:40:13.208Z,7.90
2018-11-02T16:42:43.142Z,7.13
2018-11-02T16:45:13.112Z,6.80
2018-11-02T16:47:42.931Z,6.50
2018-11-02T16:50:13.125Z,7.03
2018-11-02T16:52:42.732Z,5.60
2018-11-02T16:55:11.838Z,5.97
2018-11-02T16:57:41.132Z,5.53
2018-11-02T17:00:15.753Z,5.70
2018-11-02T17:02:46.003Z,5.93
2018-11-02T17:05:16.235Z,5.20
2018-11-02T17:07:45.312Z,5.27
2018-11-02T17:10:15.347Z,5.20
2018-11-02T17:12:44.821Z,6.80
2018-11-02T17:15:14.275Z,6.83
2018-11-02T17:17:43.556Z,6.83
2018-11-02T17:20:14.279Z,5.73
2018-11-02T17:22:43.491Z,6.40
2018-11-02T17:25:13.223Z,6.50
2018-11-02T17:27:42.476Z,5.97
2018-11-02T17:30:15.590Z,6.33
2018-11-02T17:32:44.736Z,5.60
2018-11-02T17:35:13.991Z,5.17
2018-11-02T17:37:44.002Z,6.10
2018-11-02T17:40:14.452Z,5.63
2018-11-02T17:42:44.123Z,5.03
2018-11-02T17:45:13.334Z,5.10
2018-11-02T17:47:42.867Z,5.43
2018-11-02T17:50:14.175Z,4.77
2018-11-02T17:52:43.785Z,4.73
2018-11-02T17:55:13.810Z,5.53
2018-11-02T17:57:43.325Z,4.60
2018-11-02T18:00:13.521Z,5.83
2018-11-02T18:02:42.929Z,5.07
2018-11-02T18:05:14.408Z,5.13
2018-11-02T18:07:43.772Z,4.67
2018-11-02T18:10:18.931Z,6.07
2018-11-02T18:12:48.114Z,7.90
2018-11-02T18:15:18.270Z,6.07
2018-11-02T18:17:48.287Z,6.73
2018-11-02T18:20:17.436Z,7.77
2018-11-02T18:22:46.653Z,8.27
2018-11-02T18:25:16.959Z,8.17
2018-11-02T18:27:46.366Z,7.97
2018-11-02T18:30:16.496Z,8.00
2018-11-02T18:32:46.756Z,8.07
2018-11-02T18:35:16.052Z,6.77
2018-11-02T18:37:45.099Z,13.47
2018-11-02T18:40:14.198Z,9.17
2018-11-02T18:42:44.053Z,7.60
2018-11-02T18:45:14.663Z,6.70
2018-11-02T18:47:46.139Z,7.10
2018-11-02T18:50:17.081Z,7.20
2018-11-02T18:52:46.908Z,10.37
2018-11-02T18:55:17.034Z,9.07
2018-11-02T18:57:46.239Z,7.30
2018-11-02T19:00:16.515Z,7.23
2018-11-02T19:02:47.831Z,6.80
2018-11-02T19:05:18.095Z,6.00
2018-11-02T19:07:47.223Z,6.20
2018-11-02T19:10:17.048Z,6.77
2018-11-02T19:12:46.099Z,6.23
2018-11-02T19:15:17.546Z,7.17
2018-11-02T19:17:46.738Z,6.37
2018-11-02T19:20:16.210Z,6.77
2018-11-02T19:22:45.238Z,6.90
2018-11-02T19:25:15.735Z,7.80
2018-11-02T19:27:45.659Z,7.30
2018-11-02T19:30:15.220Z,9.73
2018-11-02T19:32:44.494Z,12.70
2018-11-02T19:35:14.253Z,11.37
2018-11-02T19:37:43.542Z,13.87
2018-11-02T19:40:14.044Z,12.13
2018-11-02T19:42:43.328Z,8.30
2018-11-02T19:45:12.759Z,7.07
2018-11-02T19:47:47.463Z,7.77
2018-11-02T19:50:17.577Z,8.03
2018-11-02T19:52:46.742Z,8.93
2018-11-02T19:55:15.896Z,8.40
2018-11-02T19:57:45.034Z,9.70
2018-11-02T20:00:15.633Z,8.97
2018-11-02T20:02:44.685Z,7.93
2018-11-02T20:05:15.971Z,6.77
2018-11-02T20:07:45.155Z,7.73
2018-11-02T20:10:15.231Z,7.77
2018-11-02T20:12:45.759Z,9.17
2018-11-02T20:15:15.356Z,8.53
2018-11-02T20:17:44.511Z,7.23
2018-11-02T20:20:14.630Z,7.73
2018-11-02T20:22:43.787Z,8.83
2018-11-02T20:25:14.483Z,8.93
2018-11-02T20:27:43.747Z,8.27
2018-11-02T20:30:17.847Z,8.73
2018-11-02T20:32:48.093Z,7.53
2018-11-02T20:35:17.269Z,8.93
2018-11-02T20:37:46.420Z,8.77
2018-11-02T20:40:17.256Z,8.37
2018-11-02T20:42:46.547Z,9.57
2018-11-02T20:45:16.243Z,8.93
2018-11-02T20:47:48.553Z,8.40
2018-11-02T20:50:17.771Z,8.97
2018-11-02T20:52:46.990Z,9.43
2018-11-02T20:55:16.618Z,8.93
2018-11-02T20:57:45.696Z,8.93
2018-11-02T21:00:17.331Z,8.90
2018-11-02T21:02:46.512Z,9.00
2018-11-02T21:05:17.417Z,9.20
2018-11-02T21:07:46.967Z,9.50
2018-11-02T21:10:17.354Z,9.37
2018-11-02T21:12:46.668Z,10.87
2018-11-02T21:15:17.239Z,9.47
2018-11-02T21:17:46.517Z,10.27
2018-11-02T21:20:18.880Z,9.67
2018-11-02T21:22:48.016Z,9.83
2018-11-02T21:25:17.160Z,13.10
2018-11-02T21:27:46.740Z,13.67
2018-11-02T21:30:17.907Z,13.97
2018-11-02T21:32:47.791Z,13.23
2018-11-02T21:35:17.673Z,11.20
2018-11-02T21:37:47.556Z,11.20
2018-11-02T21:40:18.111Z,11.37
2018-11-02T21:42:47.370Z,10.20
2018-11-02T21:45:18.124Z,10.97
2018-11-02T21:47:47.401Z,10.60
2018-11-02T21:50:16.787Z,10.00
2018-11-02T21:52:45.923Z,9.20
2018-11-02T21:55:15.114Z,9.67
2018-11-02T21:57:44.242Z,10.40
2018-11-02T22:00:18.294Z,9.73
2018-11-02T22:02:47.879Z,10.50
2018-11-02T22:05:17.115Z,11.60
2018-11-02T22:07:47.536Z,10.63
2018-11-02T22:10:17.154Z,11.53
2018-11-02T22:12:46.924Z,11.03
2018-11-02T22:15:16.816Z,11.37
2018-11-02T22:17:45.955Z,11.53
2018-11-02T22:20:15.576Z,10.40
2018-11-02T22:22:44.775Z,9.93
2018-11-02T22:25:14.695Z,11.53
2018-11-02T22:27:43.847Z,11.93
2018-11-02T22:30:15.041Z,11.90
2018-11-02T22:32:44.158Z,11.43
2018-11-02T22:35:13.987Z,13.50
2018-11-02T22:37:44.052Z,14.17
2018-11-02T22:40:13.748Z,13.77
2018-11-02T22:42:43.252Z,12.33
2018-11-02T22:45:13.318Z,13.30
2018-11-02T22:47:46.944Z,12.33
2018-11-02T22:50:16.053Z,12.37
2018-11-02T22:52:46.016Z,13.97
2018-11-02T22:55:15.973Z,14.93
2018-11-02T22:57:45.209Z,14.63
2018-11-02T23:00:16.679Z,14.10
2018-11-02T23:02:46.720Z,13.57
2018-11-02T23:05:15.938Z,12.40
2018-11-02T23:07:46.231Z,13.23
2018-11-02T23:10:15.506Z,12.20
2018-11-02T23:12:44.678Z,12.20
2018-11-02T23:15:13.877Z,13.80
2018-11-02T23:17:43.096Z,14.90
2018-11-02T23:20:13.775Z,12.93
2018-11-02T23:22:42.842Z,15.00
2018-11-02T23:25:12.466Z,14.23
2018-11-02T23:27:43.280Z,15.00
2018-11-02T23:30:12.579Z,12.90
2018-11-02T23:32:41.809Z,13.73
2018-11-02T23:35:10.974Z,15.27
2018-11-02T23:37:40.253Z,14.77
2018-11-02T23:40:10.929Z,13.53
2018-11-02T23:42:40.210Z,14.17
2018-11-02T23:45:10.455Z,15.90
2018-11-02T23:47:43.953Z,14.33
2018-11-02T23:50:13.071Z,14.53
2018-11-02T23:52:42.275Z,16.40
2018-11-02T23:55:11.495Z,17.63
2018-11-02T23:57:41.291Z,16.67
